Chambersburg, PA (17201)

8:55 PM EDT on August 03, 2015 (GMT -0400)
Chambersburg | | Change Station
CLOSE
Current Station
Personal Weather Station
Location: Chambersburg, PA
Elevation: 714 ft
Nearby Weather Stations

Elev 714 ft 39.96 °N, 77.66 °W | Updated 18 seconds ago

Mostly Cloudy
Mostly Cloudy
81.5 °F
Feels Like 83 °F
N
3.1
Wind Variable Wind from West
Gusts 3.8 mph

Today
High -- | Low -- °F
--% Chance of Precip.
Yesterday
High -- | Low -- °F
Precip. -- in
6:10 AM 8:22 PM
Waning Gibbous, 82% visible
Pressure 29.83 in
Visibility 10.0 miles
Clouds Scattered Clouds 8000 ft
Mostly Cloudy 9000 ft
Heat Index 83 °F
Dew Point 64 °F
Humidity 55%
Rainfall 0.00 in
Snow Depth Not available.
UV 0 out of 12
Pollen 6.60 out of 12
Air Quality Not available.
Flu Activity Not available.
METAR KHGR 040053Z 18005KT 10SM SCT080 BKN090 28/16 A2983 RMK AO2 SLP102 T02830156

More Conditions Fewer Conditions

Pressure 29.83 in
Visibility 10.0 miles
Clouds Scattered Clouds 8000 ft
Mostly Cloudy 9000 ft
Heat Index 83 °F
Dew Point 64 °F
Humidity 55%
Rainfall 0.00 in
Snow Depth Not available.
UV 0 out of 12
Pollen 6.60 out of 12
Air Quality Not available.
Flu Activity Not available.
METAR KHGR 040053Z 18005KT 10SM SCT080 BKN090 28/16 A2983 RMK AO2 SLP102 T02830156

More Conditions Fewer Conditions

10-Day Weather Forecast

×

Almanac

Astronomy

Aug. 03, 2015 Rise Set
Actual Time
Civil Twilight
Nautical Twilight
Astronomical Twilight
Moon
Length of Visible Light
Length of Day
Tomorrow will be .
, % of the Moon is Illuminated

Today's Extremes

State Highs State Lows

Community

WunderPhotos

Upload Photos

1,843,797 photos uploaded!

WunderBlogs® & News

Nearby

Air Quality

  Air Quality AQ Index Pollutant
Not available.

Snow Depth

Station Depth Elevation

Earthquake Activity

City Distance Mag. Time & Date
Minimum magnitude displayed is 2.5.

Coastal Water Temperatures

Place Temperature

Stations

Nearby Weather Stations

Station Location Temp. Windchill Dew Point Humidity Wind Precip. Elev Updated Type